Time;durP1;ratioP1;P1;durP2;ratioP2;P2;SDS_P1;SDS_P2;PMS_P1;PMS_P2;Temp;Humidity;BMP_temperature;BMP_pressure;BME280_temperature;BME280_humidity;BME280_pressure;Samples;Min_cycle;Max_cycle;Signal;HPM_P1;HPM_P2
2020/12/21 00:01:53;;;;;;;9.50;5.65;;;;;;;;;;5112339;28;20048;-19
2020/12/21 00:04:19;;;;;;;13.77;6.68;;;;;;;;;;5112804;28;20122;-19
2020/12/21 00:06:49;;;;;;;8.45;5.45;;;;;;;;;;5112523;28;20036;-19
2020/12/21 00:09:15;;;;;;;13.45;6.50;;;;;;;;;;5116170;28;20367;-19
2020/12/21 00:11:40;;;;;;;11.93;6.45;;;;;;;;;;5116402;28;20110;-18
2020/12/21 00:14:06;;;;;;;11.50;6.15;;;;;;;;;;5116303;28;20106;-19
2020/12/21 00:16:36;;;;;;;9.75;5.88;;;;;;;;;;5116464;28;20027;-20
2020/12/21 00:19:01;;;;;;;12.48;6.00;;;;;;;;;;5116442;28;20066;-20
2020/12/21 00:21:26;;;;;;;10.77;6.40;;;;;;;;;;5115023;28;20059;-19
2020/12/21 00:23:52;;;;;;;11.88;6.88;;;;;;;;;;5114794;28;20024;-19
2020/12/21 00:26:17;;;;;;;15.38;7.57;;;;;;;;;;5114804;28;20027;-19
2020/12/21 00:28:43;;;;;;;13.32;6.07;;;;;;;;;;5116090;28;20072;-18
2020/12/21 00:31:08;;;;;;;14.82;7.05;;;;;;;;;;5116347;28;20098;-18
2020/12/21 00:33:34;;;;;;;12.40;6.60;;;;;;;;;;5115906;28;20024;-19
2020/12/21 00:35:59;;;;;;;16.95;8.07;;;;;;;;;;5114620;28;20119;-19
2020/12/21 00:38:24;;;;;;;18.00;6.53;;;;;;;;;;5116217;28;20016;-19
2020/12/21 00:40:50;;;;;;;13.20;5.70;;;;;;;;;;5114123;28;20043;-20
2020/12/21 00:43:15;;;;;;;14.38;6.97;;;;;;;;;;5115819;28;20030;-19
2020/12/21 00:45:41;;;;;;;13.63;6.88;;;;;;;;;;5115773;28;20028;-19
2020/12/21 00:48:06;;;;;;;15.57;7.13;;;;;;;;;;5115619;28;20126;-20
2020/12/21 00:50:32;;;;;;;14.52;6.97;;;;;;;;;;5115429;28;20100;-19
2020/12/21 00:52:57;;;;;;;16.67;8.05;;;;;;;;;;5114262;28;20024;-19
2020/12/21 00:55:22;;;;;;;13.50;6.53;;;;;;;;;;5115550;28;20063;-19
2020/12/21 00:57:48;;;;;;;13.07;7.20;;;;;;;;;;5114396;28;20065;-19
2020/12/21 01:00:13;;;;;;;10.48;6.28;;;;;;;;;;5115474;27;20382;-19
2020/12/21 01:02:39;;;;;;;12.30;6.35;;;;;;;;;;5115380;28;20023;-19
2020/12/21 01:05:04;;;;;;;10.57;6.15;;;;;;;;;;5114166;28;20023;-19
2020/12/21 01:07:30;;;;;;;10.13;5.70;;;;;;;;;;5114226;28;20488;-20
2020/12/21 01:09:55;;;;;;;11.68;5.60;;;;;;;;;;5115415;28;20071;-19
2020/12/21 01:12:21;;;;;;;12.48;6.47;;;;;;;;;;5115283;28;20094;-18
2020/12/21 01:14:46;;;;;;;12.40;7.40;;;;;;;;;;5115174;28;20498;-18
2020/12/21 01:17:12;;;;;;;11.90;6.47;;;;;;;;;;5115107;28;20020;-19
2020/12/21 01:19:37;;;;;;;12.65;7.28;;;;;;;;;;5114996;28;20042;-19
2020/12/21 01:22:03;;;;;;;12.18;7.22;;;;;;;;;;5115205;27;20039;-20
2020/12/21 01:24:28;;;;;;;15.73;7.25;;;;;;;;;;5115324;28;20028;-20
2020/12/21 01:26:54;;;;;;;9.30;5.85;;;;;;;;;;5114985;28;20092;-20
2020/12/21 01:29:19;;;;;;;15.00;7.03;;;;;;;;;;5114714;28;20035;-19
2020/12/21 01:31:45;;;;;;;13.52;7.25;;;;;;;;;;5114729;28;20023;-19
2020/12/21 01:34:12;;;;;;;14.63;7.53;;;;;;;;;;5114770;28;20035;-19
2020/12/21 01:36:38;;;;;;;15.48;7.38;;;;;;;;;;5115050;28;20065;-19
2020/12/21 01:39:03;;;;;;;13.60;7.13;;;;;;;;;;5114754;28;20392;-20
2020/12/21 01:41:29;;;;;;;14.25;7.45;;;;;;;;;;5114947;28;20102;-19
2020/12/21 01:43:55;;;;;;;13.73;7.63;;;;;;;;;;5113435;28;20478;-19
2020/12/21 01:46:24;;;;;;;13.73;7.13;;;;;;;;;;5114544;28;20043;-18
2020/12/21 01:48:50;;;;;;;16.27;8.27;;;;;;;;;;5113295;28;20126;-20
2020/12/21 01:51:41;;;;;;;14.13;6.93;;;;;;;;;;5112970;28;20525;-20
2020/12/21 01:54:07;;;;;;;13.40;6.88;;;;;;;;;;5110471;28;20075;-20
2020/12/21 01:56:33;;;;;;;15.55;7.57;;;;;;;;;;5114465;28;20058;-19
2020/12/21 01:58:59;;;;;;;12.38;7.00;;;;;;;;;;5112998;28;20023;-20
2020/12/21 02:01:24;;;;;;;12.40;6.63;;;;;;;;;;5114605;28;20023;-20
2020/12/21 02:03:50;;;;;;;14.52;7.38;;;;;;;;;;5114250;28;20408;-19
2020/12/21 02:06:16;;;;;;;11.88;6.35;;;;;;;;;;5114132;28;20031;-20
2020/12/21 02:08:41;;;;;;;15.65;6.53;;;;;;;;;;5114204;28;20031;-19
2020/12/21 02:11:07;;;;;;;11.77;6.00;;;;;;;;;;5114046;28;20061;-20
2020/12/21 02:13:33;;;;;;;13.57;7.13;;;;;;;;;;5114086;28;20482;-19
2020/12/21 02:16:00;;;;;;;15.52;7.15;;;;;;;;;;5114238;28;20100;-20
2020/12/21 02:18:26;;;;;;;12.65;6.65;;;;;;;;;;5114085;28;20103;-20
2020/12/21 02:20:51;;;;;;;10.23;5.78;;;;;;;;;;5112860;28;20414;-20
2020/12/21 02:23:17;;;;;;;12.82;6.53;;;;;;;;;;5113755;28;20558;-20
2020/12/21 02:25:42;;;;;;;12.10;6.53;;;;;;;;;;5113792;28;20115;-19
2020/12/21 02:28:07;;;;;;;12.45;6.47;;;;;;;;;;5113639;28;20034;-19
2020/12/21 02:30:33;;;;;;;10.98;6.82;;;;;;;;;;5111946;28;20019;-19
2020/12/21 02:32:58;;;;;;;15.70;6.70;;;;;;;;;;5112281;28;20031;-19
2020/12/21 02:35:24;;;;;;;12.00;6.00;;;;;;;;;;5113925;28;20031;-20
2020/12/21 02:37:49;;;;;;;13.38;6.57;;;;;;;;;;5112373;28;20080;-20
2020/12/21 02:40:15;;;;;;;14.50;7.05;;;;;;;;;;5113489;28;20462;-20
2020/12/21 02:42:40;;;;;;;12.85;5.82;;;;;;;;;;5112174;28;20095;-18
2020/12/21 02:45:06;;;;;;;10.88;5.78;;;;;;;;;;5113433;28;20374;-21
2020/12/21 02:47:31;;;;;;;12.35;5.95;;;;;;;;;;5113428;28;20778;-20
2020/12/21 02:49:56;;;;;;;11.18;5.53;;;;;;;;;;5113462;28;20056;-19
2020/12/21 02:52:22;;;;;;;10.48;5.68;;;;;;;;;;5113445;28;20079;-19
2020/12/21 02:54:48;;;;;;;14.98;6.63;;;;;;;;;;5112011;28;20056;-20
2020/12/21 02:57:13;;;;;;;12.02;7.18;;;;;;;;;;5113200;28;20481;-20
2020/12/21 02:59:39;;;;;;;10.45;5.88;;;;;;;;;;5113237;28;20046;-19
2020/12/21 03:02:05;;;;;;;11.75;6.05;;;;;;;;;;5111744;28;20100;-20
2020/12/21 03:04:30;;;;;;;11.55;5.55;;;;;;;;;;5113230;28;20028;-19
2020/12/21 03:06:56;;;;;;;18.27;6.45;;;;;;;;;;5113141;28;20028;-20
2020/12/21 03:09:21;;;;;;;12.23;7.30;;;;;;;;;;5113225;28;20045;-20
2020/12/21 03:11:46;;;;;;;12.27;6.80;;;;;;;;;;5111710;28;20032;-20
2020/12/21 03:14:12;;;;;;;13.57;6.95;;;;;;;;;;5112999;28;20023;-20
2020/12/21 03:16:37;;;;;;;13.73;6.03;;;;;;;;;;5111633;28;20028;-20
2020/12/21 03:19:04;;;;;;;14.95;6.85;;;;;;;;;;5113169;28;20068;-19
2020/12/21 03:21:30;;;;;;;17.77;7.05;;;;;;;;;;5113220;28;20114;-20
2020/12/21 03:23:55;;;;;;;11.27;5.75;;;;;;;;;;5112888;28;20047;-19
2020/12/21 03:26:21;;;;;;;10.05;5.85;;;;;;;;;;5113076;28;20028;-19
2020/12/21 03:28:46;;;;;;;10.68;6.28;;;;;;;;;;5113111;28;20035;-19
2020/12/21 03:31:12;;;;;;;12.85;5.78;;;;;;;;;;5111613;28;20363;-20
2020/12/21 03:33:37;;;;;;;11.70;5.35;;;;;;;;;;5112829;28;20020;-20
2020/12/21 03:36:02;;;;;;;11.55;5.88;;;;;;;;;;5094441;28;20140;-18
2020/12/21 03:38:28;;;;;;;12.38;6.35;;;;;;;;;;5113029;28;20020;-19
2020/12/21 03:40:53;;;;;;;11.63;5.63;;;;;;;;;;5112742;28;20036;-18
2020/12/21 03:43:19;;;;;;;14.63;5.78;;;;;;;;;;5115010;28;20114;-20
2020/12/21 03:45:46;;;;;;;10.00;5.57;;;;;;;;;;5115586;28;20034;-20
2020/12/21 03:48:12;;;;;;;13.63;6.47;;;;;;;;;;5116884;28;20024;-19
2020/12/21 03:50:38;;;;;;;10.95;6.43;;;;;;;;;;5116785;28;20047;-19
2020/12/21 03:53:03;;;;;;;10.00;6.22;;;;;;;;;;5115383;28;20028;-19
2020/12/21 03:55:28;;;;;;;11.98;6.13;;;;;;;;;;5116789;28;20062;-20
2020/12/21 03:57:54;;;;;;;14.52;5.82;;;;;;;;;;5115459;28;20040;-20
2020/12/21 04:00:19;;;;;;;9.07;5.53;;;;;;;;;;5115235;28;20088;-19
2020/12/21 04:02:45;;;;;;;12.43;6.60;;;;;;;;;;5116501;28;20073;-19
2020/12/21 04:05:10;;;;;;;9.85;5.82;;;;;;;;;;5116615;28;20020;-19
2020/12/21 04:07:36;;;;;;;13.82;6.90;;;;;;;;;;5116571;28;20520;-19
2020/12/21 04:10:03;;;;;;;12.77;7.18;;;;;;;;;;5116629;28;20047;-19
2020/12/21 04:12:29;;;;;;;14.55;7.32;;;;;;;;;;5115137;28;20024;-18
2020/12/21 04:14:54;;;;;;;10.65;6.30;;;;;;;;;;5116452;28;20035;-19
2020/12/21 04:17:19;;;;;;;10.88;5.80;;;;;;;;;;5116563;28;20047;-19
2020/12/21 04:19:45;;;;;;;12.05;6.80;;;;;;;;;;5116589;28;20028;-19
2020/12/21 04:22:10;;;;;;;13.98;7.22;;;;;;;;;;5114906;28;20370;-17
2020/12/21 04:24:36;;;;;;;13.38;5.95;;;;;;;;;;5116525;28;20023;-18
2020/12/21 04:27:01;;;;;;;13.35;6.32;;;;;;;;;;5116011;28;20472;-18
2020/12/21 04:29:27;;;;;;;11.10;6.28;;;;;;;;;;5116394;28;20046;-19
2020/12/21 04:31:53;;;;;;;13.35;6.78;;;;;;;;;;5116260;28;20015;-19
2020/12/21 04:34:18;;;;;;;10.70;5.80;;;;;;;;;;5115892;28;20067;-19
2020/12/21 04:36:44;;;;;;;9.43;5.93;;;;;;;;;;5116244;28;20051;-18
2020/12/21 04:39:09;;;;;;;9.02;5.88;;;;;;;;;;5115884;28;20032;-19
2020/12/21 04:41:35;;;;;;;9.98;5.97;;;;;;;;;;5115786;28;20023;-18
2020/12/21 04:44:01;;;;;;;11.35;6.43;;;;;;;;;;5114832;28;20035;-18
2020/12/21 04:46:26;;;;;;;9.40;5.82;;;;;;;;;;5115782;28;20374;-17
2020/12/21 04:48:53;;;;;;;11.43;6.05;;;;;;;;;;5115926;28;20044;-18
2020/12/21 04:51:19;;;;;;;8.73;5.95;;;;;;;;;;5114220;28;20044;-17
2020/12/21 04:53:44;;;;;;;7.78;5.00;;;;;;;;;;5115144;28;20074;-19
2020/12/21 04:56:10;;;;;;;9.00;5.55;;;;;;;;;;5115509;28;20039;-18
2020/12/21 04:58:35;;;;;;;10.57;6.47;;;;;;;;;;5115635;27;20019;-17
2020/12/21 05:01:01;;;;;;;11.25;6.25;;;;;;;;;;5115717;28;20050;-18
2020/12/21 05:03:27;;;;;;;9.15;5.35;;;;;;;;;;5114265;28;20478;-18
2020/12/21 05:05:52;;;;;;;8.50;5.63;;;;;;;;;;5114050;28;20359;-18
2020/12/21 05:08:25;;;;;;;7.80;5.28;;;;;;;;;;5114107;28;20058;-18
2020/12/21 05:11:00;;;;;;;9.77;5.75;;;;;;;;;;5115262;28;20036;-18
2020/12/21 05:13:26;;;;;;;8.90;5.68;;;;;;;;;;5115371;28;20027;-18
2020/12/21 05:15:52;;;;;;;9.02;5.38;;;;;;;;;;5115249;28;20463;-17
2020/12/21 05:18:22;;;;;;;10.15;5.80;;;;;;;;;;5113834;28;20026;-18
2020/12/21 05:20:54;;;;;;;10.13;5.63;;;;;;;;;;5115136;28;20478;-18
2020/12/21 05:23:19;;;;;;;12.43;6.45;;;;;;;;;;5115309;28;20153;-19
2020/12/21 05:25:44;;;;;;;11.85;6.15;;;;;;;;;;5115014;28;20102;-18
2020/12/21 05:28:14;;;;;;;10.00;5.53;;;;;;;;;;5113847;28;20031;-19
2020/12/21 05:30:52;;;;;;;13.15;6.63;;;;;;;;;;5115069;28;20038;-18
2020/12/21 05:33:18;;;;;;;9.88;5.72;;;;;;;;;;5113403;28;20032;-18
2020/12/21 05:35:43;;;;;;;11.85;5.82;;;;;;;;;;5114894;28;20032;-20
2020/12/21 05:38:18;;;;;;;12.18;6.30;;;;;;;;;;5114669;28;20036;-19
2020/12/21 05:40:43;;;;;;;10.77;6.47;;;;;;;;;;5114748;28;20389;-18
2020/12/21 05:43:09;;;;;;;10.05;6.10;;;;;;;;;;5113256;28;20026;-19
2020/12/21 05:45:34;;;;;;;10.52;5.57;;;;;;;;;;5114652;28;20024;-18
2020/12/21 05:48:00;;;;;;;14.63;5.78;;;;;;;;;;5113129;28;20011;-17
2020/12/21 05:50:25;;;;;;;11.55;6.63;;;;;;;;;;5114496;28;20448;-19
2020/12/21 05:52:52;;;;;;;11.60;5.60;;;;;;;;;;5113162;28;20527;-18
2020/12/21 05:55:19;;;;;;;11.55;6.63;;;;;;;;;;5113213;28;20028;-19
2020/12/21 05:57:46;;;;;;;10.43;6.25;;;;;;;;;;5114492;28;20039;-18
2020/12/21 06:00:14;;;;;;;13.02;6.80;;;;;;;;;;5114335;28;20024;-19
2020/12/21 06:02:39;;;;;;;8.82;5.13;;;;;;;;;;5113014;28;20028;-17
2020/12/21 06:05:06;;;;;;;13.18;5.97;;;;;;;;;;5112384;28;20016;-18
2020/12/21 06:07:32;;;;;;;11.20;5.88;;;;;;;;;;5112904;28;20030;-18
2020/12/21 06:09:59;;;;;;;11.80;6.57;;;;;;;;;;5114469;28;20127;-18
2020/12/21 06:12:25;;;;;;;11.35;6.75;;;;;;;;;;5112788;28;20020;-18
2020/12/21 06:14:54;;;;;;;11.73;5.78;;;;;;;;;;5114016;28;20118;-18
2020/12/21 06:17:20;;;;;;;12.63;5.57;;;;;;;;;;5112652;28;20042;-18
2020/12/21 06:19:45;;;;;;;13.13;6.30;;;;;;;;;;5114044;28;20462;-18
2020/12/21 06:22:10;;;;;;;10.63;5.85;;;;;;;;;;5113767;28;20045;-18
2020/12/21 06:24:39;;;;;;;14.98;6.70;;;;;;;;;;5113933;28;20032;-18
2020/12/21 06:27:14;;;;;;;10.93;6.57;;;;;;;;;;5114083;28;20451;-18
2020/12/21 06:29:40;;;;;;;12.75;6.93;;;;;;;;;;5113689;28;20039;-18
2020/12/21 06:32:06;;;;;;;15.85;6.63;;;;;;;;;;5113926;28;20026;-18
2020/12/21 06:34:35;;;;;;;11.77;5.88;;;;;;;;;;5113769;28;20032;-18
2020/12/21 06:37:03;;;;;;;11.07;5.43;;;;;;;;;;5095320;28;20672;-18
2020/12/21 06:39:28;;;;;;;13.45;5.93;;;;;;;;;;5112366;28;20055;-18
2020/12/21 06:42:03;;;;;;;10.65;5.25;;;;;;;;;;5112539;28;20020;-17
2020/12/21 06:44:29;;;;;;;9.40;5.47;;;;;;;;;;5113532;28;20024;-19
2020/12/21 06:46:55;;;;;;;12.25;5.38;;;;;;;;;;5113599;28;20020;-18
2020/12/21 06:49:20;;;;;;;12.73;6.15;;;;;;;;;;5113171;28;20047;-18
2020/12/21 06:51:46;;;;;;;11.98;6.18;;;;;;;;;;5113301;28;20047;-17
2020/12/21 06:54:12;;;;;;;12.68;6.45;;;;;;;;;;5113526;28;20032;-19
2020/12/21 06:56:39;;;;;;;11.57;5.80;;;;;;;;;;5113335;28;20020;-20
2020/12/21 06:59:08;;;;;;;14.48;7.22;;;;;;;;;;5113281;28;20028;-18
2020/12/21 07:01:35;;;;;;;13.18;6.72;;;;;;;;;;5113229;28;20035;-18
2020/12/21 07:04:01;;;;;;;10.27;5.93;;;;;;;;;;5113333;28;20031;-18
2020/12/21 07:06:26;;;;;;;12.98;6.50;;;;;;;;;;5113284;27;20046;-17
2020/12/21 07:08:57;;;;;;;11.65;6.55;;;;;;;;;;5113017;28;20067;-17
2020/12/21 07:11:22;;;;;;;14.77;7.03;;;;;;;;;;5112795;28;20385;-18
2020/12/21 07:13:48;;;;;;;12.93;7.78;;;;;;;;;;5113275;28;20103;-18
2020/12/21 07:16:16;;;;;;;9.23;5.50;;;;;;;;;;5113078;28;20343;-18
2020/12/21 07:18:41;;;;;;;11.60;6.45;;;;;;;;;;5111710;28;20613;-17
2020/12/21 07:21:08;;;;;;;12.52;7.22;;;;;;;;;;5112837;28;20008;-17
2020/12/21 07:23:33;;;;;;;10.77;6.15;;;;;;;;;;5113315;28;20507;-18
2020/12/21 07:25:59;;;;;;;15.50;6.25;;;;;;;;;;5111588;28;20065;-18
2020/12/21 07:28:24;;;;;;;12.27;5.82;;;;;;;;;;5112782;28;20031;-18
2020/12/21 07:30:50;;;;;;;12.38;6.03;;;;;;;;;;5112843;28;20063;-18
2020/12/21 07:33:16;;;;;;;13.80;5.75;;;;;;;;;;5111768;28;20031;-19
2020/12/21 07:35:41;;;;;;;10.60;5.85;;;;;;;;;;5112954;28;20012;-18
2020/12/21 07:38:11;;;;;;;9.80;5.63;;;;;;;;;;5111452;28;20027;-18
2020/12/21 07:40:38;;;;;;;11.23;5.38;;;;;;;;;;5112980;28;20354;-18
2020/12/21 07:43:05;;;;;;;10.27;4.93;;;;;;;;;;5112629;28;20027;-17
2020/12/21 07:45:31;;;;;;;10.73;5.57;;;;;;;;;;5111425;28;20031;-18
2020/12/21 07:47:57;;;;;;;10.25;5.97;;;;;;;;;;5112981;28;20020;-19
2020/12/21 07:50:22;;;;;;;13.65;5.85;;;;;;;;;;5112331;28;20386;-18
2020/12/21 07:52:48;;;;;;;11.43;4.78;;;;;;;;;;5111300;28;20073;-19
2020/12/21 07:55:14;;;;;;;9.05;4.88;;;;;;;;;;5112763;28;20027;-19
2020/12/21 07:57:40;;;;;;;8.50;5.40;;;;;;;;;;5112638;28;20056;-19
2020/12/21 08:00:06;;;;;;;10.65;5.80;;;;;;;;;;5112848;28;20397;-18
2020/12/21 08:02:31;;;;;;;9.93;5.78;;;;;;;;;;5112699;28;20090;-17
2020/12/21 08:04:58;;;;;;;12.50;6.55;;;;;;;;;;5112605;28;20415;-18
2020/12/21 08:07:27;;;;;;;12.98;7.55;;;;;;;;;;5112453;28;20032;-18
2020/12/21 08:09:53;;;;;;;13.98;6.72;;;;;;;;;;5112662;28;20039;-18
2020/12/21 08:12:18;;;;;;;13.80;7.40;;;;;;;;;;5111266;28;20466;-19
2020/12/21 08:14:44;;;;;;;10.45;6.43;;;;;;;;;;5112341;28;20430;-20
2020/12/21 08:17:10;;;;;;;13.73;6.72;;;;;;;;;;5112387;28;20024;-18
2020/12/21 08:19:48;;;;;;;14.82;7.13;;;;;;;;;;5111187;28;20016;-18
2020/12/21 08:22:18;;;;;;;10.98;6.05;;;;;;;;;;5110983;28;20031;-19
2020/12/21 08:24:43;;;;;;;10.68;6.03;;;;;;;;;;5112573;28;20072;-17
2020/12/21 08:27:17;;;;;;;10.18;5.88;;;;;;;;;;5111072;28;20118;-18
2020/12/21 08:29:43;;;;;;;12.15;6.53;;;;;;;;;;5115162;28;20355;-18
2020/12/21 08:32:08;;;;;;;11.88;5.95;;;;;;;;;;5116256;28;20027;-19
2020/12/21 08:34:34;;;;;;;9.25;5.68;;;;;;;;;;5116073;28;20031;-18
2020/12/21 08:36:59;;;;;;;11.43;6.25;;;;;;;;;;5115972;28;20015;-20
2020/12/21 08:39:25;;;;;;;15.88;6.90;;;;;;;;;;5116100;28;20039;-19
2020/12/21 08:41:58;;;;;;;15.52;7.00;;;;;;;;;;5115839;28;20457;-20
2020/12/21 08:44:24;;;;;;;13.23;6.60;;;;;;;;;;5115537;28;20027;-20
2020/12/21 08:46:54;;;;;;;13.27;6.65;;;;;;;;;;5116153;28;20065;-19
2020/12/21 08:49:21;;;;;;;12.88;6.40;;;;;;;;;;5115677;28;20049;-19
2020/12/21 08:51:47;;;;;;;12.98;6.25;;;;;;;;;;5114197;28;20130;-19
2020/12/21 08:54:13;;;;;;;14.82;6.57;;;;;;;;;;5115888;28;20115;-19
2020/12/21 08:56:38;;;;;;;11.02;6.13;;;;;;;;;;5114410;28;20047;-18
2020/12/21 08:59:04;;;;;;;9.68;5.97;;;;;;;;;;5114158;28;20036;-18
2020/12/21 09:01:29;;;;;;;9.95;6.05;;;;;;;;;;5115746;28;20030;-19
2020/12/21 09:03:55;;;;;;;12.57;6.63;;;;;;;;;;5114229;28;20035;-20
2020/12/21 09:06:21;;;;;;;9.00;5.82;;;;;;;;;;5115552;28;20046;-20
2020/12/21 09:08:47;;;;;;;11.48;6.63;;;;;;;;;;5115663;28;20027;-20
2020/12/21 09:11:16;;;;;;;10.82;5.35;;;;;;;;;;5115255;28;20011;-20
2020/12/21 09:13:42;;;;;;;9.52;5.45;;;;;;;;;;5115195;28;20493;-20
2020/12/21 09:16:08;;;;;;;13.48;6.15;;;;;;;;;;5115286;28;20051;-19
2020/12/21 09:18:34;;;;;;;9.85;5.57;;;;;;;;;;5115486;28;20023;-19
2020/12/21 09:20:59;;;;;;;11.88;5.63;;;;;;;;;;5113957;28;20528;-19
2020/12/21 09:23:25;;;;;;;11.57;6.10;;;;;;;;;;5114806;28;20506;-20
2020/12/21 09:25:50;;;;;;;8.52;5.03;;;;;;;;;;5113720;28;20016;-19
2020/12/21 09:28:15;;;;;;;10.75;5.72;;;;;;;;;;5113961;28;20027;-19
2020/12/21 09:30:41;;;;;;;9.85;5.50;;;;;;;;;;5114632;28;20019;-19
2020/12/21 09:33:06;;;;;;;10.23;5.45;;;;;;;;;;4738238;28;9999938;-19
2020/12/21 09:35:32;;;;;;;11.40;6.47;;;;;;;;;;5091278;28;20024;-20
2020/12/21 09:38:00;;;;;;;9.02;5.60;;;;;;;;;;5091176;28;20074;-19
2020/12/21 09:40:26;;;;;;;10.38;6.68;;;;;;;;;;5090706;28;20020;-19
2020/12/21 09:42:52;;;;;;;8.02;4.95;;;;;;;;;;5089360;28;20083;-19
2020/12/21 09:45:18;;;;;;;7.35;3.85;;;;;;;;;;5088897;28;20619;-19
2020/12/21 09:47:44;;;;;;;6.60;4.05;;;;;;;;;;5089205;28;20043;-19
2020/12/21 09:50:09;;;;;;;8.15;4.22;;;;;;;;;;5090312;28;20105;-20
2020/12/21 09:52:35;;;;;;;7.40;4.18;;;;;;;;;;5090967;28;20031;-20
2020/12/21 09:55:00;;;;;;;9.30;4.78;;;;;;;;;;5090563;28;20107;-19
2020/12/21 09:57:26;;;;;;;8.10;4.13;;;;;;;;;;5090953;28;20036;-20
2020/12/21 09:59:51;;;;;;;6.50;4.28;;;;;;;;;;5089210;28;20085;-20
2020/12/21 10:02:17;;;;;;;7.55;4.57;;;;;;;;;;5090247;28;20103;-19
2020/12/21 10:04:43;;;;;;;8.23;4.90;;;;;;;;;;5088639;28;20020;-20
2020/12/21 10:07:08;;;;;;;8.23;4.82;;;;;;;;;;5089589;28;20063;-19
2020/12/21 10:09:33;;;;;;;8.55;4.70;;;;;;;;;;5096016;28;20031;-20
2020/12/21 10:11:59;;;;;;;7.32;3.83;;;;;;;;;;5110394;28;20084;-19
2020/12/21 10:14:24;;;;;;;7.95;4.78;;;;;;;;;;5110719;28;20032;-20
2020/12/21 10:16:53;;;;;;;8.13;4.47;;;;;;;;;;5110184;28;20382;-19
2020/12/21 10:19:19;;;;;;;9.40;5.78;;;;;;;;;;5109969;28;20024;-20
2020/12/21 10:21:44;;;;;;;5.88;4.25;;;;;;;;;;5110692;28;20107;-20
2020/12/21 10:24:10;;;;;;;7.28;4.20;;;;;;;;;;5110185;28;20344;-20
2020/12/21 10:26:42;;;;;;;6.43;4.70;;;;;;;;;;5108734;28;20112;-20
2020/12/21 10:29:07;;;;;;;7.07;4.90;;;;;;;;;;5108797;28;20038;-19
2020/12/21 10:31:33;;;;;;;6.43;4.85;;;;;;;;;;5104766;28;20008;-21
2020/12/21 10:33:58;;;;;;;9.57;4.65;;;;;;;;;;5089660;28;20032;-21
2020/12/21 10:36:24;;;;;;;10.35;5.03;;;;;;;;;;5088257;28;20020;-20
2020/12/21 10:38:50;;;;;;;7.90;4.75;;;;;;;;;;5088294;28;20055;-20
2020/12/21 10:41:16;;;;;;;9.25;5.03;;;;;;;;;;5088481;28;20016;-20
2020/12/21 10:43:41;;;;;;;6.78;4.55;;;;;;;;;;5089472;28;20057;-19
2020/12/21 10:46:07;;;;;;;7.65;4.90;;;;;;;;;;5089963;28;20557;-19
2020/12/21 10:48:33;;;;;;;7.85;4.68;;;;;;;;;;5107630;28;20481;-20
2020/12/21 10:51:00;;;;;;;6.55;4.82;;;;;;;;;;5109204;28;20052;-25
2020/12/21 10:53:26;;;;;;;6.90;4.00;;;;;;;;;;5109692;28;20054;-20
2020/12/21 10:55:51;;;;;;;7.43;4.13;;;;;;;;;;5107814;28;20038;-20
2020/12/21 10:58:16;;;;;;;5.93;4.05;;;;;;;;;;5109585;28;20382;-20
2020/12/21 11:00:42;;;;;;;7.88;4.38;;;;;;;;;;5109240;28;20026;-20
2020/12/21 11:03:07;;;;;;;7.75;4.90;;;;;;;;;;5109751;28;20031;-20
2020/12/21 11:05:33;;;;;;;6.78;5.18;;;;;;;;;;5108247;28;20030;-19
2020/12/21 11:07:59;;;;;;;8.90;6.10;;;;;;;;;;5109330;28;20023;-18
2020/12/21 11:10:24;;;;;;;10.05;6.25;;;;;;;;;;5109606;28;20031;-20
2020/12/21 11:12:55;;;;;;;8.02;4.38;;;;;;;;;;5108939;28;20035;-19
2020/12/21 11:15:22;;;;;;;7.45;4.53;;;;;;;;;;5109276;28;20023;-19
2020/12/21 11:17:48;;;;;;;7.13;4.00;;;;;;;;;;5109561;28;20019;-20
2020/12/21 11:20:14;;;;;;;6.72;4.25;;;;;;;;;;5109068;28;20106;-19
2020/12/21 11:22:42;;;;;;;6.68;4.35;;;;;;;;;;5109619;28;20154;-20
2020/12/21 11:25:08;;;;;;;5.82;4.03;;;;;;;;;;5110334;28;20070;-20
2020/12/21 11:27:33;;;;;;;5.45;3.67;;;;;;;;;;5110053;28;20481;-20
2020/12/21 11:29:59;;;;;;;6.18;4.03;;;;;;;;;;5109551;28;20119;-19
2020/12/21 11:32:24;;;;;;;6.38;3.75;;;;;;;;;;5109162;28;20023;-20
2020/12/21 11:34:50;;;;;;;6.20;4.18;;;;;;;;;;5109311;28;20046;-19
2020/12/21 11:37:15;;;;;;;21.92;4.90;;;;;;;;;;5109443;28;20018;-21
2020/12/21 11:39:41;;;;;;;5.90;4.10;;;;;;;;;;5109430;28;20103;-20
2020/12/21 11:42:06;;;;;;;7.65;4.75;;;;;;;;;;5109202;28;20019;-20
2020/12/21 11:44:32;;;;;;;6.38;4.25;;;;;;;;;;5109149;28;20032;-20
2020/12/21 11:46:57;;;;;;;9.70;6.05;;;;;;;;;;5109523;28;20584;-20
2020/12/21 11:49:23;;;;;;;10.60;5.40;;;;;;;;;;5102223;28;20046;-20
2020/12/21 11:51:48;;;;;;;7.53;5.43;;;;;;;;;;5107521;28;20130;-19
2020/12/21 11:54:14;;;;;;;10.48;6.15;;;;;;;;;;5108989;28;20032;-20
2020/12/21 11:56:39;;;;;;;9.15;5.55;;;;;;;;;;5107050;28;20020;-19
2020/12/21 11:59:05;;;;;;;8.50;5.43;;;;;;;;;;5109130;28;20032;-20
2020/12/21 12:01:30;;;;;;;8.25;5.75;;;;;;;;;;5107387;28;20037;-21
2020/12/21 12:03:55;;;;;;;8.98;5.90;;;;;;;;;;5110246;28;20059;-20
2020/12/21 12:06:25;;;;;;;8.43;5.45;;;;;;;;;;5113052;28;20026;-20
2020/12/21 12:08:53;;;;;;;9.60;5.60;;;;;;;;;;5097687;28;20570;-20
2020/12/21 12:11:22;;;;;;;7.68;5.10;;;;;;;;;;5106349;28;20470;-19
2020/12/21 12:13:48;;;;;;;7.65;5.60;;;;;;;;;;5111590;28;20030;-19
2020/12/21 12:16:20;;;;;;;14.35;5.82;;;;;;;;;;5113328;28;20099;-21
2020/12/21 12:18:46;;;;;;;9.60;5.87;;;;;;;;;;5112466;28;20583;-19
2020/12/21 12:21:11;;;;;;;10.73;5.68;;;;;;;;;;5102101;28;20261;-20
2020/12/21 12:23:37;;;;;;;26.88;6.95;;;;;;;;;;5092419;28;20063;-20
2020/12/21 12:26:02;;;;;;;10.23;6.28;;;;;;;;;;5092170;28;20039;-19
2020/12/21 12:28:28;;;;;;;9.25;5.82;;;;;;;;;;5104614;28;20031;-20
2020/12/21 12:30:53;;;;;;;11.25;6.15;;;;;;;;;;5112394;28;20019;-19
2020/12/21 12:33:18;;;;;;;9.50;5.47;;;;;;;;;;5093520;28;20037;-20
2020/12/21 12:35:44;;;;;;;12.70;6.13;;;;;;;;;;5092357;28;20076;-20
2020/12/21 12:38:09;;;;;;;8.13;5.20;;;;;;;;;;5091969;28;20032;-21
2020/12/21 12:40:35;;;;;;;10.63;5.53;;;;;;;;;;5090497;28;20016;-20
2020/12/21 12:43:00;;;;;;;9.10;5.60;;;;;;;;;;5091839;28;20044;-19
2020/12/21 12:45:25;;;;;;;10.40;6.32;;;;;;;;;;5090010;28;20027;-20
2020/12/21 12:47:51;;;;;;;10.43;6.43;;;;;;;;;;5091597;28;20028;-20
2020/12/21 12:50:16;;;;;;;9.32;5.82;;;;;;;;;;5091407;28;20048;-20
2020/12/21 12:52:42;;;;;;;12.73;6.65;;;;;;;;;;5091897;28;20039;-19
2020/12/21 12:55:07;;;;;;;9.60;5.40;;;;;;;;;;5092553;28;20023;-20
2020/12/21 12:57:33;;;;;;;9.48;6.13;;;;;;;;;;5112468;28;20091;-19
2020/12/21 12:59:58;;;;;;;6.97;4.97;;;;;;;;;;5112115;28;20019;-19
2020/12/21 13:02:24;;;;;;;7.28;5.13;;;;;;;;;;5112202;28;20031;-20
2020/12/21 13:04:49;;;;;;;8.65;5.43;;;;;;;;;;5110486;28;20015;-19
2020/12/21 13:07:14;;;;;;;7.85;5.43;;;;;;;;;;5091975;28;20024;-18
2020/12/21 13:09:40;;;;;;;10.60;6.05;;;;;;;;;;5091205;28;20038;-19
2020/12/21 13:12:05;;;;;;;9.00;5.68;;;;;;;;;;5089797;28;20031;-18
2020/12/21 13:14:31;;;;;;;10.40;6.43;;;;;;;;;;5089359;28;20519;-18
2020/12/21 13:16:56;;;;;;;13.82;6.10;;;;;;;;;;5091321;28;20467;-18
2020/12/21 13:19:22;;;;;;;7.55;5.30;;;;;;;;;;5090793;28;20094;-17
2020/12/21 13:21:50;;;;;;;9.30;5.47;;;;;;;;;;5091177;28;20127;-19
2020/12/21 13:24:15;;;;;;;14.02;6.90;;;;;;;;;;5091499;28;20032;-18
2020/12/21 13:26:42;;;;;;;11.35;6.35;;;;;;;;;;5089699;28;20035;-18
2020/12/21 13:29:07;;;;;;;12.10;6.72;;;;;;;;;;5089312;28;20024;-18
2020/12/21 13:31:32;;;;;;;11.18;6.28;;;;;;;;;;5093124;28;20046;-19
2020/12/21 13:33:58;;;;;;;9.18;5.38;;;;;;;;;;5090684;28;20063;-17
2020/12/21 13:36:24;;;;;;;10.07;5.05;;;;;;;;;;5091069;28;20116;-19
2020/12/21 13:38:49;;;;;;;10.80;5.53;;;;;;;;;;5090818;28;20430;-19
2020/12/21 13:41:15;;;;;;;13.00;5.55;;;;;;;;;;5095506;28;20051;-19
2020/12/21 13:43:40;;;;;;;11.07;6.55;;;;;;;;;;5101201;28;20012;-17
2020/12/21 13:46:09;;;;;;;8.75;5.43;;;;;;;;;;5099694;28;20035;-18
2020/12/21 13:48:35;;;;;;;10.48;5.75;;;;;;;;;;5108977;28;20016;-18
2020/12/21 13:51:06;;;;;;;9.43;4.45;;;;;;;;;;5110423;28;20112;-19
2020/12/21 13:53:31;;;;;;;7.78;5.20;;;;;;;;;;5077062;28;20127;-19
2020/12/21 13:55:58;;;;;;;5.70;4.25;;;;;;;;;;5088350;28;20034;-17
2020/12/21 13:58:23;;;;;;;9.82;4.68;;;;;;;;;;5090488;28;20445;-17
2020/12/21 14:00:49;;;;;;;7.15;4.93;;;;;;;;;;5090171;28;20695;-19
2020/12/21 14:03:14;;;;;;;8.57;5.47;;;;;;;;;;5090214;28;20032;-19
2020/12/21 14:05:40;;;;;;;8.30;5.03;;;;;;;;;;5090412;28;20055;-19
2020/12/21 14:08:05;;;;;;;11.70;5.95;;;;;;;;;;5088704;28;20107;-18
2020/12/21 14:10:32;;;;;;;9.02;5.15;;;;;;;;;;5089555;28;20071;-18
2020/12/21 14:12:58;;;;;;;9.30;5.50;;;;;;;;;;5090333;28;20031;-19
2020/12/21 14:15:23;;;;;;;9.73;5.72;;;;;;;;;;5090032;28;20020;-18
2020/12/21 14:17:51;;;;;;;9.65;4.93;;;;;;;;;;5088291;28;20705;-19
2020/12/21 14:20:17;;;;;;;7.57;5.30;;;;;;;;;;5089624;28;20012;-18
2020/12/21 14:22:43;;;;;;;7.68;4.75;;;;;;;;;;5096853;28;20054;-19
2020/12/21 14:25:08;;;;;;;5.95;4.28;;;;;;;;;;5109837;28;20012;-19
2020/12/21 14:27:34;;;;;;;5.75;4.47;;;;;;;;;;5109676;28;20028;-18